< Typhoon 195720 1957 Season Typhoon 195722 >
Typhoon 195721 (LOLA)
General InformationTrack Information on Google Maps || Disaster Info.ResourceGoogle EarthGE AnimationAtom FeedGeoJSON
Detalied Best Track (Time Zone = UTC)
Year Month Day Hour Lat. Long. Pressure (hPa) Wind (kt) Class Image Chart
1957 11 8 18 7.0 166.0 1004 0 2 -- Chart
1957 11 9 00 7.1 165.4 1004 0 2 -- Chart
1957 11 9 06 7.2 164.9 1002 0 2 -- Chart
1957 11 9 12 7.4 164.3 1004 0 2 -- Chart
1957 11 9 18 7.5 163.9 1002 0 2 -- Chart
1957 11 10 00 7.7 163.4 1002 0 2 -- Chart
1957 11 10 06 7.8 163.0 1000 0 2 -- Chart
1957 11 10 12 7.9 162.8 1000 0 2 -- Chart
1957 11 10 18 8.0 162.4 1000 0 2 -- Chart
1957 11 11 00 8.1 162.1 1000 0 2 -- Chart
1957 11 11 06 8.2 161.8 1000 0 2 -- Chart
1957 11 11 12 8.3 161.6 1000 0 2 -- Chart
1957 11 11 18 8.5 161.4 990 0 2 -- Chart
1957 11 12 00 8.3 160.5 980 0 9 -- Chart
1957 11 12 06 8.0 159.0 975 0 9 -- Chart
1957 11 12 12 8.0 158.0 975 0 9 -- Chart
1957 11 12 18 8.0 157.1 975 0 9 -- Chart
1957 11 13 00 8.1 156.2 975 0 9 -- Chart
1957 11 13 06 8.3 155.5 975 0 9 -- Chart
1957 11 13 12 8.6 154.3 970 0 9 -- Chart
1957 11 13 18 8.9 152.9 950 0 9 -- Chart
1957 11 14 00 9.2 152.0 930 0 9 -- Chart
1957 11 14 06 9.8 150.6 920 0 9 -- Chart
1957 11 14 12 10.5 149.7 920 0 9 -- Chart
1957 11 14 18 11.2 148.7 915 0 9 -- Chart
1957 11 15 00 11.9 147.3 910 0 9 -- Chart
1957 11 15 06 12.5 145.7 900 0 9 -- Chart
1957 11 15 12 12.9 144.4 900 0 9 -- Chart
1957 11 15 18 13.1 143.2 900 0 9 -- Chart
1957 11 16 00 13.4 142.1 900 0 9 -- Chart
1957 11 16 06 13.7 140.8 900 0 9 -- Chart
1957 11 16 12 13.9 139.4 900 0 9 -- Chart
1957 11 16 18 14.4 138.7 910 0 9 -- Chart
1957 11 17 00 14.9 137.8 910 0 9 -- Chart
1957 11 17 06 15.4 137.2 920 0 9 -- Chart
1957 11 17 12 16.2 137.0 915 0 9 -- Chart
1957 11 17 18 17.2 136.9 915 0 9 -- Chart
1957 11 18 00 18.1 136.8 915 0 9 -- Chart
1957 11 18 06 19.0 136.9 920 0 9 -- Chart
1957 11 18 12 20.1 137.1 925 0 9 -- Chart
1957 11 18 18 22.0 137.6 930 0 9 -- Chart
1957 11 19 00 24.0 138.5 930 0 9 -- Chart
1957 11 19 06 26.1 139.4 930 0 9 -- Chart
1957 11 19 12 27.8 140.5 945 0 9 -- Chart
1957 11 19 18 29.2 141.9 960 0 9 -- Chart
1957 11 20 00 30.5 143.4 970 0 9 -- Chart
1957 11 20 06 32.2 145.9 980 0 9 -- Chart
1957 11 20 12 34.3 150.0 980 0 9 -- Chart
1957 11 20 18 35.5 154.0 985 0 6 -- Chart
1957 11 21 00 36.2 158.0 985 0 6 -- Chart
1957 11 21 06 37.5 165.0 985 0 6 -- Chart
1957 11 21 12 37.7 170.6 990 0 6 -- Chart
1957 11 21 18 37.5 173.0 998 0 6 -- Chart
1957 11 22 00 37.0 178.0 1004 0 6 -- Chart
Japan Meteorological Agency Best Track Data | Correction Date : 1989-06-01
< Typhoon 195720 1957 Season Typhoon 195722 >

Help